sensor_id;sensor_type;location;lat;lon;timestamp;P1;durP1;ratioP1;P2;durP2;ratioP2
51925;SDS011;37952;51.938;15.480;2022-09-24T00:00:36;2.80;;;2.60;;
51925;SDS011;37952;51.938;15.480;2022-09-24T00:04:01;2.70;;;2.60;;
51925;SDS011;37952;51.938;15.480;2022-09-24T00:07:07;2.50;;;2.40;;
51925;SDS011;37952;51.938;15.480;2022-09-24T00:13:42;2.70;;;2.50;;
51925;SDS011;37952;51.938;15.480;2022-09-24T00:16:45;2.50;;;2.40;;
51925;SDS011;37952;51.938;15.480;2022-09-24T00:19:49;2.90;;;2.60;;
51925;SDS011;37952;51.938;15.480;2022-09-24T00:22:52;2.60;;;2.40;;
51925;SDS011;37952;51.938;15.480;2022-09-24T00:25:55;2.20;;;2.10;;
51925;SDS011;37952;51.938;15.480;2022-09-24T00:29:20;2.90;;;2.80;;
51925;SDS011;37952;51.938;15.480;2022-09-24T00:32:25;2.60;;;2.40;;
51925;SDS011;37952;51.938;15.480;2022-09-24T00:35:30;2.60;;;2.50;;
51925;SDS011;37952;51.938;15.480;2022-09-24T00:38:37;6.10;;;2.80;;
51925;SDS011;37952;51.938;15.480;2022-09-24T00:41:40;2.90;;;2.70;;
51925;SDS011;37952;51.938;15.480;2022-09-24T00:44:48;2.40;;;2.30;;
51925;SDS011;37952;51.938;15.480;2022-09-24T00:47:53;2.80;;;2.60;;
51925;SDS011;37952;51.938;15.480;2022-09-24T00:50:57;2.70;;;2.50;;
51925;SDS011;37952;51.938;15.480;2022-09-24T00:54:05;2.40;;;2.30;;
51925;SDS011;37952;51.938;15.480;2022-09-24T00:57:30;2.80;;;2.60;;
51925;SDS011;37952;51.938;15.480;2022-09-24T01:00:36;2.30;;;2.20;;
51925;SDS011;37952;51.938;15.480;2022-09-24T01:03:40;2.40;;;2.30;;
51925;SDS011;37952;51.938;15.480;2022-09-24T01:06:46;2.50;;;2.40;;
51925;SDS011;37952;51.938;15.480;2022-09-24T01:09:50;2.80;;;2.60;;
51925;SDS011;37952;51.938;15.480;2022-09-24T01:12:56;2.40;;;2.30;;
51925;SDS011;37952;51.938;15.480;2022-09-24T01:16:13;2.00;;;1.90;;
51925;SDS011;37952;51.938;15.480;2022-09-24T01:32:51;2.60;;;2.40;;
51925;SDS011;37952;51.938;15.480;2022-09-24T01:35:57;2.40;;;2.20;;
51925;SDS011;37952;51.938;15.480;2022-09-24T01:39:06;2.90;;;2.70;;
51925;SDS011;37952;51.938;15.480;2022-09-24T01:42:10;2.70;;;2.50;;
51925;SDS011;37952;51.938;15.480;2022-09-24T01:45:15;2.80;;;2.50;;
51925;SDS011;37952;51.938;15.480;2022-09-24T01:48:20;2.40;;;2.30;;
51925;SDS011;37952;51.938;15.480;2022-09-24T01:51:26;2.70;;;2.60;;
51925;SDS011;37952;51.938;15.480;2022-09-24T01:54:36;2.80;;;2.60;;
51925;SDS011;37952;51.938;15.480;2022-09-24T01:57:44;3.40;;;2.50;;
51925;SDS011;37952;51.938;15.480;2022-09-24T02:00:52;4.70;;;2.80;;
51925;SDS011;37952;51.938;15.480;2022-09-24T02:07:15;2.50;;;2.30;;
51925;SDS011;37952;51.938;15.480;2022-09-24T02:10:29;2.30;;;2.20;;
51925;SDS011;37952;51.938;15.480;2022-09-24T02:13:36;2.50;;;2.30;;
51925;SDS011;37952;51.938;15.480;2022-09-24T02:16:49;2.50;;;2.40;;
51925;SDS011;37952;51.938;15.480;2022-09-24T02:19:53;7.70;;;2.80;;
51925;SDS011;37952;51.938;15.480;2022-09-24T02:23:00;2.40;;;2.30;;
51925;SDS011;37952;51.938;15.480;2022-09-24T02:26:05;3.00;;;2.80;;
51925;SDS011;37952;51.938;15.480;2022-09-24T02:29:08;2.60;;;2.50;;
51925;SDS011;37952;51.938;15.480;2022-09-24T02:32:15;2.40;;;2.20;;
51925;SDS011;37952;51.938;15.480;2022-09-24T02:35:20;2.80;;;2.60;;
51925;SDS011;37952;51.938;15.480;2022-09-24T02:38:24;2.90;;;2.60;;
51925;SDS011;37952;51.938;15.480;2022-09-24T02:41:27;3.00;;;2.70;;
51925;SDS011;37952;51.938;15.480;2022-09-24T02:44:33;2.70;;;2.50;;
51925;SDS011;37952;51.938;15.480;2022-09-24T02:47:37;2.10;;;2.00;;
51925;SDS011;37952;51.938;15.480;2022-09-24T02:50:40;2.60;;;2.50;;
51925;SDS011;37952;51.938;15.480;2022-09-24T02:53:44;2.60;;;2.40;;
51925;SDS011;37952;51.938;15.480;2022-09-24T02:56:47;2.50;;;2.40;;
51925;SDS011;37952;51.938;15.480;2022-09-24T02:59:51;5.30;;;2.50;;
51925;SDS011;37952;51.938;15.480;2022-09-24T03:02:55;2.90;;;2.80;;
51925;SDS011;37952;51.938;15.480;2022-09-24T03:05:58;2.70;;;2.50;;
51925;SDS011;37952;51.938;15.480;2022-09-24T03:09:01;4.10;;;2.10;;
51925;SDS011;37952;51.938;15.480;2022-09-24T03:12:05;2.60;;;2.30;;
51925;SDS011;37952;51.938;15.480;2022-09-24T03:15:09;2.50;;;2.10;;
51925;SDS011;37952;51.938;15.480;2022-09-24T03:18:12;2.50;;;2.40;;
51925;SDS011;37952;51.938;15.480;2022-09-24T03:21:18;4.40;;;2.40;;
51925;SDS011;37952;51.938;15.480;2022-09-24T03:24:26;2.50;;;2.40;;
51925;SDS011;37952;51.938;15.480;2022-09-24T03:27:29;2.90;;;2.30;;
51925;SDS011;37952;51.938;15.480;2022-09-24T03:30:32;2.30;;;2.10;;
51925;SDS011;37952;51.938;15.480;2022-09-24T03:33:53;2.90;;;2.20;;
51925;SDS011;37952;51.938;15.480;2022-09-24T03:36:57;3.10;;;2.00;;
51925;SDS011;37952;51.938;15.480;2022-09-24T03:40:01;3.10;;;2.40;;
51925;SDS011;37952;51.938;15.480;2022-09-24T03:43:04;2.40;;;2.30;;
51925;SDS011;37952;51.938;15.480;2022-09-24T03:46:07;2.50;;;2.30;;
51925;SDS011;37952;51.938;15.480;2022-09-24T03:49:11;2.20;;;1.90;;
51925;SDS011;37952;51.938;15.480;2022-09-24T03:52:15;2.20;;;2.10;;
51925;SDS011;37952;51.938;15.480;2022-09-24T03:55:18;2.30;;;2.20;;
51925;SDS011;37952;51.938;15.480;2022-09-24T03:58:22;2.00;;;1.90;;
51925;SDS011;37952;51.938;15.480;2022-09-24T04:01:26;2.20;;;2.10;;
51925;SDS011;37952;51.938;15.480;2022-09-24T04:04:30;2.30;;;2.00;;
51925;SDS011;37952;51.938;15.480;2022-09-24T04:07:33;4.20;;;1.90;;
51925;SDS011;37952;51.938;15.480;2022-09-24T04:10:36;2.10;;;2.00;;
51925;SDS011;37952;51.938;15.480;2022-09-24T04:13:40;2.00;;;1.90;;
51925;SDS011;37952;51.938;15.480;2022-09-24T04:16:43;2.10;;;1.90;;
51925;SDS011;37952;51.938;15.480;2022-09-24T04:19:47;2.20;;;2.10;;
51925;SDS011;37952;51.938;15.480;2022-09-24T04:22:51;2.20;;;2.10;;
51925;SDS011;37952;51.938;15.480;2022-09-24T04:25:56;2.20;;;2.00;;
51925;SDS011;37952;51.938;15.480;2022-09-24T04:29:02;1.90;;;1.80;;
51925;SDS011;37952;51.938;15.480;2022-09-24T04:32:05;2.20;;;1.90;;
51925;SDS011;37952;51.938;15.480;2022-09-24T04:35:08;1.90;;;1.80;;
51925;SDS011;37952;51.938;15.480;2022-09-24T04:38:12;2.30;;;2.10;;
51925;SDS011;37952;51.938;15.480;2022-09-24T04:41:16;2.10;;;2.00;;
51925;SDS011;37952;51.938;15.480;2022-09-24T04:44:19;4.30;;;2.30;;
51925;SDS011;37952;51.938;15.480;2022-09-24T04:47:23;1.90;;;1.80;;
51925;SDS011;37952;51.938;15.480;2022-09-24T04:50:28;2.30;;;2.10;;
51925;SDS011;37952;51.938;15.480;2022-09-24T04:53:35;3.10;;;2.00;;
51925;SDS011;37952;51.938;15.480;2022-09-24T04:56:39;2.30;;;2.10;;
51925;SDS011;37952;51.938;15.480;2022-09-24T04:59:42;3.80;;;2.20;;
51925;SDS011;37952;51.938;15.480;2022-09-24T05:02:46;2.50;;;2.30;;
51925;SDS011;37952;51.938;15.480;2022-09-24T05:05:49;3.10;;;2.10;;
51925;SDS011;37952;51.938;15.480;2022-09-24T05:08:52;3.00;;;2.50;;
51925;SDS011;37952;51.938;15.480;2022-09-24T05:11:56;3.00;;;2.40;;
51925;SDS011;37952;51.938;15.480;2022-09-24T05:15:03;2.80;;;2.60;;
51925;SDS011;37952;51.938;15.480;2022-09-24T05:18:06;2.30;;;2.20;;
51925;SDS011;37952;51.938;15.480;2022-09-24T05:21:09;2.90;;;2.70;;
51925;SDS011;37952;51.938;15.480;2022-09-24T05:24:12;2.90;;;2.80;;
51925;SDS011;37952;51.938;15.480;2022-09-24T05:27:16;4.20;;;2.80;;
51925;SDS011;37952;51.938;15.480;2022-09-24T05:30:22;3.10;;;2.90;;
51925;SDS011;37952;51.938;15.480;2022-09-24T05:33:26;2.70;;;2.10;;
51925;SDS011;37952;51.938;15.480;2022-09-24T05:36:29;3.30;;;3.00;;
51925;SDS011;37952;51.938;15.480;2022-09-24T05:39:32;2.90;;;2.70;;
51925;SDS011;37952;51.938;15.480;2022-09-24T05:42:36;3.40;;;3.10;;
51925;SDS011;37952;51.938;15.480;2022-09-24T05:45:39;3.70;;;3.10;;
51925;SDS011;37952;51.938;15.480;2022-09-24T05:48:46;3.00;;;2.90;;
51925;SDS011;37952;51.938;15.480;2022-09-24T05:51:49;2.80;;;2.70;;
51925;SDS011;37952;51.938;15.480;2022-09-24T05:54:52;2.80;;;2.70;;
51925;SDS011;37952;51.938;15.480;2022-09-24T05:58:01;2.70;;;2.50;;
51925;SDS011;37952;51.938;15.480;2022-09-24T06:01:05;2.40;;;2.20;;
51925;SDS011;37952;51.938;15.480;2022-09-24T06:04:08;2.70;;;2.60;;
51925;SDS011;37952;51.938;15.480;2022-09-24T06:07:13;2.60;;;2.50;;
51925;SDS011;37952;51.938;15.480;2022-09-24T06:10:18;3.00;;;2.30;;
51925;SDS011;37952;51.938;15.480;2022-09-24T06:13:23;2.40;;;2.20;;
51925;SDS011;37952;51.938;15.480;2022-09-24T06:16:26;2.40;;;2.30;;
51925;SDS011;37952;51.938;15.480;2022-09-24T06:19:29;2.30;;;2.20;;
51925;SDS011;37952;51.938;15.480;2022-09-24T06:22:33;2.40;;;2.30;;
51925;SDS011;37952;51.938;15.480;2022-09-24T06:25:36;2.10;;;2.00;;
51925;SDS011;37952;51.938;15.480;2022-09-24T06:28:39;2.20;;;2.10;;
51925;SDS011;37952;51.938;15.480;2022-09-24T06:31:43;2.90;;;2.70;;
51925;SDS011;37952;51.938;15.480;2022-09-24T06:34:50;3.30;;;2.70;;
51925;SDS011;37952;51.938;15.480;2022-09-24T06:38:01;2.40;;;2.30;;
51925;SDS011;37952;51.938;15.480;2022-09-24T06:41:05;2.20;;;2.10;;
51925;SDS011;37952;51.938;15.480;2022-09-24T06:44:08;2.90;;;2.30;;
51925;SDS011;37952;51.938;15.480;2022-09-24T06:47:12;2.40;;;2.30;;
51925;SDS011;37952;51.938;15.480;2022-09-24T06:50:15;2.30;;;2.20;;
51925;SDS011;37952;51.938;15.480;2022-09-24T06:53:19;2.60;;;2.40;;
51925;SDS011;37952;51.938;15.480;2022-09-24T06:56:22;2.40;;;2.30;;
51925;SDS011;37952;51.938;15.480;2022-09-24T06:59:25;3.40;;;3.00;;
51925;SDS011;37952;51.938;15.480;2022-09-24T07:02:28;3.50;;;3.20;;
51925;SDS011;37952;51.938;15.480;2022-09-24T07:05:33;2.60;;;2.50;;
51925;SDS011;37952;51.938;15.480;2022-09-24T07:08:42;3.40;;;3.10;;
51925;SDS011;37952;51.938;15.480;2022-09-24T07:11:45;2.90;;;2.80;;
51925;SDS011;37952;51.938;15.480;2022-09-24T07:14:48;2.80;;;2.70;;
51925;SDS011;37952;51.938;15.480;2022-09-24T07:17:55;2.30;;;2.20;;
51925;SDS011;37952;51.938;15.480;2022-09-24T07:20:58;2.70;;;2.50;;
51925;SDS011;37952;51.938;15.480;2022-09-24T07:24:01;2.80;;;2.60;;
51925;SDS011;37952;51.938;15.480;2022-09-24T07:27:05;2.80;;;2.60;;
51925;SDS011;37952;51.938;15.480;2022-09-24T07:30:08;3.10;;;2.90;;
51925;SDS011;37952;51.938;15.480;2022-09-24T07:33:12;2.40;;;2.20;;
51925;SDS011;37952;51.938;15.480;2022-09-24T07:36:15;2.70;;;2.60;;
51925;SDS011;37952;51.938;15.480;2022-09-24T07:39:18;2.70;;;2.50;;
51925;SDS011;37952;51.938;15.480;2022-09-24T07:42:21;2.40;;;2.30;;
51925;SDS011;37952;51.938;15.480;2022-09-24T07:45:26;2.20;;;2.10;;
51925;SDS011;37952;51.938;15.480;2022-09-24T07:48:31;2.50;;;2.40;;
51925;SDS011;37952;51.938;15.480;2022-09-24T07:51:34;2.60;;;2.40;;
51925;SDS011;37952;51.938;15.480;2022-09-24T07:54:38;2.90;;;2.70;;
51925;SDS011;37952;51.938;15.480;2022-09-24T07:57:44;2.70;;;2.60;;
51925;SDS011;37952;51.938;15.480;2022-09-24T08:00:51;2.70;;;2.40;;
51925;SDS011;37952;51.938;15.480;2022-09-24T08:03:54;2.70;;;2.50;;
51925;SDS011;37952;51.938;15.480;2022-09-24T08:06:57;2.60;;;2.50;;
51925;SDS011;37952;51.938;15.480;2022-09-24T08:10:06;2.30;;;2.20;;
51925;SDS011;37952;51.938;15.480;2022-09-24T08:13:25;2.40;;;2.20;;
51925;SDS011;37952;51.938;15.480;2022-09-24T08:16:29;2.50;;;2.30;;
51925;SDS011;37952;51.938;15.480;2022-09-24T08:19:35;2.20;;;2.10;;
51925;SDS011;37952;51.938;15.480;2022-09-24T08:22:40;2.20;;;2.10;;
51925;SDS011;37952;51.938;15.480;2022-09-24T08:25:43;4.80;;;2.40;;
51925;SDS011;37952;51.938;15.480;2022-09-24T08:28:47;3.70;;;2.60;;
51925;SDS011;37952;51.938;15.480;2022-09-24T08:31:50;2.90;;;2.70;;
51925;SDS011;37952;51.938;15.480;2022-09-24T08:34:54;2.70;;;2.50;;
51925;SDS011;37952;51.938;15.480;2022-09-24T08:37:58;4.30;;;2.10;;
51925;SDS011;37952;51.938;15.480;2022-09-24T08:50:59;2.80;;;2.20;;
51925;SDS011;37952;51.938;15.480;2022-09-24T08:54:08;2.40;;;2.30;;
51925;SDS011;37952;51.938;15.480;2022-09-24T08:57:15;4.90;;;2.50;;
51925;SDS011;37952;51.938;15.480;2022-09-24T09:00:20;2.00;;;1.90;;
51925;SDS011;37952;51.938;15.480;2022-09-24T09:10:03;2.30;;;2.10;;
51925;SDS011;37952;51.938;15.480;2022-09-24T09:13:22;2.30;;;2.20;;
51925;SDS011;37952;51.938;15.480;2022-09-24T09:16:42;2.60;;;2.50;;
51925;SDS011;37952;51.938;15.480;2022-09-24T09:20:00;2.20;;;2.10;;
51925;SDS011;37952;51.938;15.480;2022-09-24T09:23:12;2.70;;;2.60;;
51925;SDS011;37952;51.938;15.480;2022-09-24T09:26:20;3.10;;;2.80;;
51925;SDS011;37952;51.938;15.480;2022-09-24T09:29:23;3.20;;;3.00;;
51925;SDS011;37952;51.938;15.480;2022-09-24T09:45:37;3.40;;;3.20;;
51925;SDS011;37952;51.938;15.480;2022-09-24T09:49:06;3.00;;;2.80;;
51925;SDS011;37952;51.938;15.480;2022-09-24T09:52:13;3.40;;;3.10;;
51925;SDS011;37952;51.938;15.480;2022-09-24T09:55:24;3.20;;;3.00;;
51925;SDS011;37952;51.938;15.480;2022-09-24T09:58:30;3.50;;;3.20;;
51925;SDS011;37952;51.938;15.480;2022-09-24T10:01:36;3.40;;;3.20;;
51925;SDS011;37952;51.938;15.480;2022-09-24T10:04:52;3.40;;;3.10;;
51925;SDS011;37952;51.938;15.480;2022-09-24T10:07:57;3.00;;;2.80;;
51925;SDS011;37952;51.938;15.480;2022-09-24T10:11:01;2.90;;;2.70;;
51925;SDS011;37952;51.938;15.480;2022-09-24T10:14:15;2.90;;;2.60;;
51925;SDS011;37952;51.938;15.480;2022-09-24T10:17:24;4.50;;;4.10;;
51925;SDS011;37952;51.938;15.480;2022-09-24T10:20:31;6.60;;;3.30;;
51925;SDS011;37952;51.938;15.480;2022-09-24T10:23:43;3.60;;;2.90;;
51925;SDS011;37952;51.938;15.480;2022-09-24T10:26:54;4.10;;;2.70;;
51925;SDS011;37952;51.938;15.480;2022-09-24T10:29:57;2.70;;;2.60;;
51925;SDS011;37952;51.938;15.480;2022-09-24T10:33:19;2.90;;;2.70;;
51925;SDS011;37952;51.938;15.480;2022-09-24T10:36:25;2.80;;;2.70;;
51925;SDS011;37952;51.938;15.480;2022-09-24T10:39:29;3.00;;;2.80;;
51925;SDS011;37952;51.938;15.480;2022-09-24T10:42:33;2.60;;;2.40;;
51925;SDS011;37952;51.938;15.480;2022-09-24T10:52:43;2.60;;;2.20;;
51925;SDS011;37952;51.938;15.480;2022-09-24T11:09:06;1.80;;;1.70;;
51925;SDS011;37952;51.938;15.480;2022-09-24T11:12:38;1.70;;;1.60;;
51925;SDS011;37952;51.938;15.480;2022-09-24T11:25:59;1.60;;;1.50;;
51925;SDS011;37952;51.938;15.480;2022-09-24T11:29:24;1.50;;;1.40;;
51925;SDS011;37952;51.938;15.480;2022-09-24T11:39:28;1.40;;;1.30;;
51925;SDS011;37952;51.938;15.480;2022-09-24T11:42:44;4.90;;;1.50;;
51925;SDS011;37952;51.938;15.480;2022-09-24T11:49:30;1.70;;;1.50;;
51925;SDS011;37952;51.938;15.480;2022-09-24T11:59:41;1.30;;;1.30;;
51925;SDS011;37952;51.938;15.480;2022-09-24T12:02:53;1.50;;;1.40;;
51925;SDS011;37952;51.938;15.480;2022-09-24T12:06:10;1.70;;;1.60;;
51925;SDS011;37952;51.938;15.480;2022-09-24T12:12:55;1.60;;;1.50;;
51925;SDS011;37952;51.938;15.480;2022-09-24T12:16:07;1.60;;;1.50;;
51925;SDS011;37952;51.938;15.480;2022-09-24T12:19:21;2.00;;;1.50;;
51925;SDS011;37952;51.938;15.480;2022-09-24T12:22:28;2.00;;;1.90;;
51925;SDS011;37952;51.938;15.480;2022-09-24T12:25:40;1.80;;;1.70;;
51925;SDS011;37952;51.938;15.480;2022-09-24T12:36:23;6.10;;;1.60;;
51925;SDS011;37952;51.938;15.480;2022-09-24T12:39:44;1.30;;;1.30;;
51925;SDS011;37952;51.938;15.480;2022-09-24T12:42:55;1.30;;;1.30;;
51925;SDS011;37952;51.938;15.480;2022-09-24T12:46:01;1.60;;;1.50;;
51925;SDS011;37952;51.938;15.480;2022-09-24T12:49:15;1.40;;;1.30;;
51925;SDS011;37952;51.938;15.480;2022-09-24T12:52:35;10.60;;;1.80;;
51925;SDS011;37952;51.938;15.480;2022-09-24T12:55:44;1.70;;;1.60;;
51925;SDS011;37952;51.938;15.480;2022-09-24T12:58:47;2.40;;;1.20;;
51925;SDS011;37952;51.938;15.480;2022-09-24T13:01:51;3.40;;;1.40;;
51925;SDS011;37952;51.938;15.480;2022-09-24T13:14:28;1.20;;;1.20;;
51925;SDS011;37952;51.938;15.480;2022-09-24T13:17:34;1.40;;;1.20;;
51925;SDS011;37952;51.938;15.480;2022-09-24T13:20:40;1.00;;;1.00;;
51925;SDS011;37952;51.938;15.480;2022-09-24T13:23:51;1.00;;;1.00;;
51925;SDS011;37952;51.938;15.480;2022-09-24T13:30:33;1.00;;;0.90;;
51925;SDS011;37952;51.938;15.480;2022-09-24T13:33:48;0.90;;;0.90;;
51925;SDS011;37952;51.938;15.480;2022-09-24T13:37:08;1.30;;;1.20;;
51925;SDS011;37952;51.938;15.480;2022-09-24T13:40:18;1.60;;;1.50;;
51925;SDS011;37952;51.938;15.480;2022-09-24T13:46:52;1.70;;;1.60;;
51925;SDS011;37952;51.938;15.480;2022-09-24T13:53:18;1.00;;;1.00;;
51925;SDS011;37952;51.938;15.480;2022-09-24T13:56:28;1.50;;;1.40;;
51925;SDS011;37952;51.938;15.480;2022-09-24T13:59:31;1.40;;;1.30;;
51925;SDS011;37952;51.938;15.480;2022-09-24T14:02:35;1.20;;;1.20;;
51925;SDS011;37952;51.938;15.480;2022-09-24T14:05:40;1.20;;;1.20;;
51925;SDS011;37952;51.938;15.480;2022-09-24T14:08:44;1.20;;;1.20;;
51925;SDS011;37952;51.938;15.480;2022-09-24T14:11:49;2.40;;;1.40;;
51925;SDS011;37952;51.938;15.480;2022-09-24T14:14:54;1.20;;;1.20;;
51925;SDS011;37952;51.938;15.480;2022-09-24T14:18:02;3.70;;;1.30;;
51925;SDS011;37952;51.938;15.480;2022-09-24T14:21:22;1.50;;;1.40;;
51925;SDS011;37952;51.938;15.480;2022-09-24T14:24:33;1.20;;;1.20;;
51925;SDS011;37952;51.938;15.480;2022-09-24T14:27:43;1.30;;;1.20;;
51925;SDS011;37952;51.938;15.480;2022-09-24T14:30:52;1.30;;;1.30;;
51925;SDS011;37952;51.938;15.480;2022-09-24T14:33:58;1.80;;;1.20;;
51925;SDS011;37952;51.938;15.480;2022-09-24T14:37:09;1.30;;;1.30;;
51925;SDS011;37952;51.938;15.480;2022-09-24T14:40:23;1.20;;;1.10;;
51925;SDS011;37952;51.938;15.480;2022-09-24T14:46:46;1.50;;;1.40;;
51925;SDS011;37952;51.938;15.480;2022-09-24T14:49:53;1.50;;;1.40;;
51925;SDS011;37952;51.938;15.480;2022-09-24T14:52:57;1.30;;;1.30;;
51925;SDS011;37952;51.938;15.480;2022-09-24T14:56:16;1.50;;;1.40;;
51925;SDS011;37952;51.938;15.480;2022-09-24T14:59:29;1.40;;;1.30;;
51925;SDS011;37952;51.938;15.480;2022-09-24T15:02:37;1.50;;;1.40;;
51925;SDS011;37952;51.938;15.480;2022-09-24T15:05:41;1.70;;;1.60;;
51925;SDS011;37952;51.938;15.480;2022-09-24T15:08:59;1.70;;;1.60;;
51925;SDS011;37952;51.938;15.480;2022-09-24T15:12:07;1.60;;;1.50;;
51925;SDS011;37952;51.938;15.480;2022-09-24T15:18:22;3.20;;;1.70;;
51925;SDS011;37952;51.938;15.480;2022-09-24T15:21:25;1.80;;;1.70;;
51925;SDS011;37952;51.938;15.480;2022-09-24T15:24:29;1.60;;;1.50;;
51925;SDS011;37952;51.938;15.480;2022-09-24T15:27:34;2.20;;;1.30;;
51925;SDS011;37952;51.938;15.480;2022-09-24T15:30:43;2.60;;;1.50;;
51925;SDS011;37952;51.938;15.480;2022-09-24T15:33:46;1.50;;;1.40;;
51925;SDS011;37952;51.938;15.480;2022-09-24T15:36:54;4.40;;;1.80;;
51925;SDS011;37952;51.938;15.480;2022-09-24T15:40:09;5.10;;;1.90;;
51925;SDS011;37952;51.938;15.480;2022-09-24T15:43:18;5.30;;;1.80;;
51925;SDS011;37952;51.938;15.480;2022-09-24T15:46:23;1.70;;;1.60;;
51925;SDS011;37952;51.938;15.480;2022-09-24T15:49:28;3.50;;;1.70;;
51925;SDS011;37952;51.938;15.480;2022-09-24T15:52:32;1.70;;;1.60;;
51925;SDS011;37952;51.938;15.480;2022-09-24T15:55:38;1.80;;;1.70;;
51925;SDS011;37952;51.938;15.480;2022-09-24T15:58:41;1.60;;;1.50;;
51925;SDS011;37952;51.938;15.480;2022-09-24T16:01:45;1.80;;;1.70;;
51925;SDS011;37952;51.938;15.480;2022-09-24T16:04:51;1.60;;;1.50;;
51925;SDS011;37952;51.938;15.480;2022-09-24T16:07:54;1.70;;;1.60;;
51925;SDS011;37952;51.938;15.480;2022-09-24T16:10:58;1.80;;;1.70;;
51925;SDS011;37952;51.938;15.480;2022-09-24T16:14:00;2.00;;;1.90;;
51925;SDS011;37952;51.938;15.480;2022-09-24T16:17:03;2.40;;;1.60;;
51925;SDS011;37952;51.938;15.480;2022-09-24T16:20:07;2.80;;;2.40;;
51925;SDS011;37952;51.938;15.480;2022-09-24T16:23:12;2.40;;;2.30;;
51925;SDS011;37952;51.938;15.480;2022-09-24T16:26:16;3.20;;;2.50;;
51925;SDS011;37952;51.938;15.480;2022-09-24T16:29:20;2.20;;;2.10;;
51925;SDS011;37952;51.938;15.480;2022-09-24T16:32:23;2.40;;;2.30;;
51925;SDS011;37952;51.938;15.480;2022-09-24T16:35:26;3.00;;;2.70;;
51925;SDS011;37952;51.938;15.480;2022-09-24T16:38:32;2.50;;;2.40;;
51925;SDS011;37952;51.938;15.480;2022-09-24T16:41:36;2.50;;;2.30;;
51925;SDS011;37952;51.938;15.480;2022-09-24T16:44:39;3.90;;;2.10;;
51925;SDS011;37952;51.938;15.480;2022-09-24T16:47:43;6.00;;;2.30;;
51925;SDS011;37952;51.938;15.480;2022-09-24T16:50:46;2.40;;;2.30;;
51925;SDS011;37952;51.938;15.480;2022-09-24T16:53:54;2.80;;;2.60;;
51925;SDS011;37952;51.938;15.480;2022-09-24T16:56:57;2.90;;;2.70;;
51925;SDS011;37952;51.938;15.480;2022-09-24T17:00:01;3.10;;;2.70;;
51925;SDS011;37952;51.938;15.480;2022-09-24T17:03:07;7.00;;;4.30;;
51925;SDS011;37952;51.938;15.480;2022-09-24T17:06:16;3.80;;;3.60;;
51925;SDS011;37952;51.938;15.480;2022-09-24T17:09:24;4.60;;;3.40;;
51925;SDS011;37952;51.938;15.480;2022-09-24T17:12:49;3.40;;;3.20;;
51925;SDS011;37952;51.938;15.480;2022-09-24T17:15:53;3.70;;;3.40;;
51925;SDS011;37952;51.938;15.480;2022-09-24T17:18:56;3.60;;;3.30;;
51925;SDS011;37952;51.938;15.480;2022-09-24T17:22:00;4.00;;;3.40;;
51925;SDS011;37952;51.938;15.480;2022-09-24T17:25:04;3.50;;;3.30;;
51925;SDS011;37952;51.938;15.480;2022-09-24T17:28:08;3.60;;;3.40;;
51925;SDS011;37952;51.938;15.480;2022-09-24T17:31:15;3.20;;;3.00;;
51925;SDS011;37952;51.938;15.480;2022-09-24T17:34:19;3.30;;;3.00;;
51925;SDS011;37952;51.938;15.480;2022-09-24T17:37:22;3.40;;;3.20;;
51925;SDS011;37952;51.938;15.480;2022-09-24T17:40:25;4.00;;;2.80;;
51925;SDS011;37952;51.938;15.480;2022-09-24T17:43:29;3.00;;;2.80;;
51925;SDS011;37952;51.938;15.480;2022-09-24T17:46:39;3.10;;;2.80;;
51925;SDS011;37952;51.938;15.480;2022-09-24T17:49:42;3.00;;;2.70;;
51925;SDS011;37952;51.938;15.480;2022-09-24T17:52:45;3.80;;;2.70;;
51925;SDS011;37952;51.938;15.480;2022-09-24T17:55:49;3.30;;;3.10;;
51925;SDS011;37952;51.938;15.480;2022-09-24T17:58:54;3.40;;;3.20;;
51925;SDS011;37952;51.938;15.480;2022-09-24T18:02:01;3.60;;;3.00;;
51925;SDS011;37952;51.938;15.480;2022-09-24T18:05:08;3.50;;;3.20;;
51925;SDS011;37952;51.938;15.480;2022-09-24T18:08:13;8.40;;;3.70;;
51925;SDS011;37952;51.938;15.480;2022-09-24T18:11:24;2.90;;;2.80;;
51925;SDS011;37952;51.938;15.480;2022-09-24T18:14:30;3.50;;;3.20;;
51925;SDS011;37952;51.938;15.480;2022-09-24T18:17:35;3.40;;;3.10;;
51925;SDS011;37952;51.938;15.480;2022-09-24T18:20:39;2.80;;;2.60;;
51925;SDS011;37952;51.938;15.480;2022-09-24T18:23:43;2.70;;;2.60;;
51925;SDS011;37952;51.938;15.480;2022-09-24T18:26:48;3.30;;;3.10;;
51925;SDS011;37952;51.938;15.480;2022-09-24T18:29:54;4.40;;;2.90;;
51925;SDS011;37952;51.938;15.480;2022-09-24T18:32:59;4.60;;;3.20;;
51925;SDS011;37952;51.938;15.480;2022-09-24T18:36:04;2.90;;;2.70;;
51925;SDS011;37952;51.938;15.480;2022-09-24T18:39:11;3.40;;;3.20;;
51925;SDS011;37952;51.938;15.480;2022-09-24T18:42:19;3.30;;;3.00;;
51925;SDS011;37952;51.938;15.480;2022-09-24T18:45:22;3.00;;;2.80;;
51925;SDS011;37952;51.938;15.480;2022-09-24T18:48:26;3.20;;;3.00;;
51925;SDS011;37952;51.938;15.480;2022-09-24T18:51:30;2.90;;;2.80;;
51925;SDS011;37952;51.938;15.480;2022-09-24T18:54:35;3.10;;;2.90;;
51925;SDS011;37952;51.938;15.480;2022-09-24T18:57:38;3.00;;;2.80;;
51925;SDS011;37952;51.938;15.480;2022-09-24T19:00:41;3.50;;;3.10;;
51925;SDS011;37952;51.938;15.480;2022-09-24T19:03:53;2.80;;;2.60;;
51925;SDS011;37952;51.938;15.480;2022-09-24T19:06:57;3.80;;;3.50;;
51925;SDS011;37952;51.938;15.480;2022-09-24T19:13:29;3.10;;;2.90;;
51925;SDS011;37952;51.938;15.480;2022-09-24T19:16:33;3.30;;;3.10;;
51925;SDS011;37952;51.938;15.480;2022-09-24T19:19:36;3.50;;;3.30;;
51925;SDS011;37952;51.938;15.480;2022-09-24T19:22:41;5.70;;;3.20;;
51925;SDS011;37952;51.938;15.480;2022-09-24T19:25:50;3.40;;;3.00;;
51925;SDS011;37952;51.938;15.480;2022-09-24T19:28:54;3.00;;;2.80;;
51925;SDS011;37952;51.938;15.480;2022-09-24T19:31:58;2.90;;;2.70;;
51925;SDS011;37952;51.938;15.480;2022-09-24T19:35:01;3.20;;;3.00;;
51925;SDS011;37952;51.938;15.480;2022-09-24T19:38:04;3.30;;;3.10;;
51925;SDS011;37952;51.938;15.480;2022-09-24T19:41:19;2.90;;;2.50;;
51925;SDS011;37952;51.938;15.480;2022-09-24T19:44:30;2.50;;;2.30;;
51925;SDS011;37952;51.938;15.480;2022-09-24T19:47:33;2.60;;;2.50;;
51925;SDS011;37952;51.938;15.480;2022-09-24T19:50:36;3.50;;;2.50;;
51925;SDS011;37952;51.938;15.480;2022-09-24T19:53:47;2.80;;;2.60;;
51925;SDS011;37952;51.938;15.480;2022-09-24T19:56:52;2.50;;;2.30;;
51925;SDS011;37952;51.938;15.480;2022-09-24T19:59:57;3.30;;;3.10;;
51925;SDS011;37952;51.938;15.480;2022-09-24T20:03:03;2.80;;;2.70;;
51925;SDS011;37952;51.938;15.480;2022-09-24T20:06:09;3.60;;;3.40;;
51925;SDS011;37952;51.938;15.480;2022-09-24T20:09:22;3.70;;;3.40;;
51925;SDS011;37952;51.938;15.480;2022-09-24T20:12:26;4.10;;;3.40;;
51925;SDS011;37952;51.938;15.480;2022-09-24T20:15:31;3.50;;;3.30;;
51925;SDS011;37952;51.938;15.480;2022-09-24T20:18:35;4.00;;;3.50;;
51925;SDS011;37952;51.938;15.480;2022-09-24T20:21:38;4.20;;;3.90;;
51925;SDS011;37952;51.938;15.480;2022-09-24T20:24:42;4.60;;;4.10;;
51925;SDS011;37952;51.938;15.480;2022-09-24T20:27:46;4.10;;;3.90;;
51925;SDS011;37952;51.938;15.480;2022-09-24T20:30:52;4.60;;;4.40;;
51925;SDS011;37952;51.938;15.480;2022-09-24T20:33:58;4.30;;;4.00;;
51925;SDS011;37952;51.938;15.480;2022-09-24T20:37:02;3.50;;;3.40;;
51925;SDS011;37952;51.938;15.480;2022-09-24T20:40:08;4.50;;;4.30;;
51925;SDS011;37952;51.938;15.480;2022-09-24T20:43:12;4.10;;;3.90;;